Time;durP1;ratioP1;P1;durP2;ratioP2;P2;SDS_P1;SDS_P2;PMS_P1;PMS_P2;Temp;Humidity;BMP_temperature;BMP_pressure;BME280_temperature;BME280_humidity;BME280_pressure;Samples;Min_cycle;Max_cycle;Signal;HPM_P1;HPM_P2
2022/02/06 00:01:40;;;;;;;;;22.25;20.25;;;;;7.80;64.77;101625.12;146604;583;46013;-72
2022/02/06 00:04:34;;;;;;;;;26.50;24.00;;;;;7.82;64.90;101620.09;146608;647;46008;-73
2022/02/06 00:07:26;;;;;;;;;27.25;24.50;;;;;7.85;64.38;101620.34;146604;620;46012;-72
2022/02/06 00:10:19;;;;;;;;;28.00;24.00;;;;;7.90;63.73;101625.81;146608;601;47008;-72
2022/02/06 00:13:12;;;;;;;;;20.00;19.00;;;;;7.95;64.09;101624.50;146606;616;46016;-79
2022/02/06 00:16:04;;;;;;;;;25.50;21.50;;;;;7.99;64.39;101621.38;146607;566;47008;-73
2022/02/06 00:18:57;;;;;;;;;18.00;13.25;;;;;7.99;64.97;101627.41;146602;569;46012;-73
2022/02/06 00:21:49;;;;;;;;;20.50;15.25;;;;;8.00;64.66;101620.56;146607;623;46020;-72
2022/02/06 00:24:49;;;;;;;;;18.50;15.25;;;;;8.06;63.58;101621.03;146603;580;46914;-72
2022/02/06 00:31:21;;;;;;;;;21.75;18.50;;;;;8.23;62.73;101638.72;146603;647;47010;-71
2022/02/06 00:34:44;;;;;;;;;28.50;26.50;;;;;8.32;62.09;101630.75;146608;721;46008;-71
2022/02/06 00:41:08;;;;;;;;;41.75;36.00;;;;;8.47;62.39;101636.19;146603;571;46023;-79
2022/02/06 00:43:51;;;;;;;;;65.00;51.00;;;;;8.49;61.94;101639.78;146603;801;46911;-79
2022/02/06 00:46:45;;;;;;;;;75.33;64.67;;;;;8.50;62.08;101645.09;146608;571;46020;-80
2022/02/06 00:49:39;;;;;;;;;90.67;82.67;;;;;8.52;61.80;101642.59;146608;564;48010;-74
2022/02/06 00:52:38;;;;;;;;;84.00;78.67;;;;;8.51;61.65;101640.81;146615;577;46020;-74
2022/02/06 00:55:30;;;;;;;;;83.00;77.00;;;;;8.52;61.79;101645.19;146608;570;47010;-84
2022/02/06 00:58:22;;;;;;;;;84.00;78.33;;;;;8.52;63.01;101640.91;146615;623;46023;-73
2022/02/06 01:01:15;;;;;;;;;73.50;57.75;;;;;8.51;62.50;101645.97;146608;663;46016;-74
2022/02/06 01:04:07;;;;;;;;;64.75;50.25;;;;;8.46;63.22;101634.38;146606;667;46008;-74
2022/02/06 01:06:59;;;;;;;;;58.00;45.00;;;;;8.41;63.47;101634.06;146605;611;45914;-79
2022/02/06 01:09:52;;;;;;;;;57.50;46.25;;;;;8.35;65.18;101623.25;146609;602;46008;-74
2022/02/06 01:12:51;;;;;;;;;55.25;45.25;;;;;8.32;63.86;101628.19;146603;689;46016;-72
2022/02/06 01:15:53;;;;;;;;;52.25;41.25;;;;;8.31;63.64;101628.94;146606;568;46020;-72
2022/02/06 01:18:54;;;;;;;;;48.75;39.00;;;;;8.31;62.94;101626.34;146607;598;46012;-73
2022/02/06 01:21:56;;;;;;;;;48.25;39.50;;;;;8.33;62.93;101625.69;146608;675;46020;-77
2022/02/06 01:25:08;;;;;;;;;45.75;38.75;;;;;8.40;63.05;101626.19;146607;588;46010;-75
2022/02/06 01:28:06;;;;;;;;;46.75;39.25;;;;;8.45;62.94;101632.59;146610;566;46008;-72
2022/02/06 01:31:19;;;;;;;;;66.50;51.00;;;;;8.51;63.35;101633.94;146607;573;46016;-72
2022/02/06 01:34:15;;;;;;;;;66.75;52.25;;;;;8.54;63.38;101617.78;146608;632;46021;-72
2022/02/06 01:40:40;;;;;;;;;63.25;49.25;;;;;8.60;63.65;101623.41;146609;570;46008;-73
2022/02/06 01:43:41;;;;;;;;;50.75;40.25;;;;;8.56;64.02;101629.09;146605;630;46010;-73
2022/02/06 02:02:56;;;;;;;;;36.25;32.50;;;;;8.16;65.54;101640.72;146607;579;46010;-78
2022/02/06 02:29:24;;;;;;;;;40.00;33.00;;;;;7.63;67.18;101628.06;146605;593;46016;-76
2022/02/06 02:32:58;;;;;;;;;42.75;34.00;;;;;7.59;66.45;101626.94;146607;569;46008;-76
2022/02/06 02:45:14;;;;;;;;;12.25;10.25;;;;;7.49;68.31;101621.84;146609;596;45022;-84
2022/02/06 02:48:07;;;;;;;;;27.75;27.75;;;;;7.45;68.74;101608.62;146603;596;47010;-83
2022/02/06 02:51:04;;;;;;;;;33.75;28.50;;;;;7.43;67.76;101618.81;146608;598;46008;-91
2022/02/06 02:54:01;;;;;;;;;32.25;25.75;;;;;7.45;66.83;101624.09;146609;583;46031;-86
2022/02/06 02:57:08;;;;;;;;;30.00;25.50;;;;;7.48;66.73;101632.97;146607;621;46020;-85
2022/02/06 03:06:22;;;;;;;;;25.00;23.50;;;;;7.50;69.21;101621.06;146605;621;46912;-72
2022/02/06 03:09:15;;;;;;;;;31.75;29.50;;;;;7.48;69.98;101621.75;146610;581;46008;-72
2022/02/06 03:12:07;;;;;;;;;45.75;34.00;;;;;7.47;68.83;101628.56;146607;574;46012;-75
2022/02/06 03:15:10;;;;;;;;;32.50;28.25;;;;;7.47;66.87;101632.84;146601;666;46021;-73
2022/02/06 03:18:04;;;;;;;;;29.50;26.50;;;;;7.49;66.68;101642.50;146605;598;46913;-74
2022/02/06 03:21:00;;;;;;;;;32.50;29.00;;;;;7.56;66.64;101636.13;146607;605;47010;-80
2022/02/06 03:23:55;;;;;;;;;26.25;23.75;;;;;7.61;65.61;101646.03;146606;574;46010;-78
2022/02/06 03:26:48;;;;;;;;;26.25;24.50;;;;;7.69;65.47;101653.47;146608;582;46008;-77
2022/02/06 03:29:41;;;;;;;;;30.50;29.00;;;;;7.72;65.35;101648.53;146605;639;46017;-74
2022/02/06 03:32:34;;;;;;;;;25.50;23.75;;;;;7.70;66.15;101652.72;146609;634;46008;-74
2022/02/06 03:35:27;;;;;;;;;27.00;24.00;;;;;7.70;65.35;101658.78;146605;577;46016;-75
2022/02/06 03:38:19;;;;;;;;;29.25;28.75;;;;;7.73;65.40;101663.28;146603;577;47011;-72
2022/02/06 03:41:12;;;;;;;;;31.75;27.00;;;;;7.76;66.75;101656.66;146606;630;46010;-80
2022/02/06 03:44:15;;;;;;;;;29.25;27.00;;;;;7.74;68.36;101652.16;146605;642;46020;-77
2022/02/06 03:47:17;;;;;;;;;35.25;29.00;;;;;7.71;66.94;101665.72;146603;591;46016;-84
2022/02/06 03:50:12;;;;;;;;;37.00;33.25;;;;;7.70;66.14;101671.69;146607;577;46008;-82
2022/02/06 03:53:03;;;;;;;;;23.75;22.25;;;;;7.69;66.47;101669.84;146605;564;46010;-81
2022/02/06 03:55:58;;;;;;;;;19.75;16.25;;;;;7.64;66.16;101666.94;146608;579;46008;-82
2022/02/06 03:58:50;;;;;;;;;18.00;16.25;;;;;7.63;66.58;101674.53;146605;575;46012;-82
2022/02/06 04:01:43;;;;;;;;;20.75;14.50;;;;;7.62;67.90;101668.47;146607;574;46008;-82
2022/02/06 04:04:35;;;;;;;;;19.75;17.00;;;;;7.59;67.47;101672.50;146606;608;46030;-82
2022/02/06 04:07:27;;;;;;;;;17.00;14.75;;;;;7.58;66.38;101692.25;146606;620;46008;-82
2022/02/06 04:10:20;;;;;;;;;27.75;22.75;;;;;7.54;65.85;101692.81;146604;576;46026;-82
2022/02/06 04:13:17;;;;;;;;;26.25;23.00;;;;;7.64;65.96;101700.50;146606;574;46008;-81
2022/02/06 04:16:15;;;;;;;;;21.50;18.00;;;;;7.68;65.85;101709.38;146607;569;46010;-81
2022/02/06 04:19:22;;;;;;;;;14.25;13.25;;;;;7.68;65.71;101719.69;146608;563;45044;-74
2022/02/06 04:22:14;;;;;;;;;17.50;15.00;;;;;7.68;65.10;101714.53;146602;634;47012;-76
2022/02/06 04:25:07;;;;;;;;;28.25;25.25;;;;;7.68;65.62;101709.38;146608;591;46008;-76
2022/02/06 04:27:59;;;;;;;;;20.50;18.00;;;;;7.69;64.81;101710.25;146604;569;46016;-76
2022/02/06 04:30:52;;;;;;;;;24.00;20.25;;;;;7.73;65.15;101717.50;146607;651;47008;-75
2022/02/06 04:33:44;;;;;;;;;24.50;21.00;;;;;7.74;65.54;101714.13;146598;577;46016;-75
2022/02/06 04:36:49;;;;;;;;;27.75;25.50;;;;;7.74;64.81;101719.28;146608;573;46008;-79
2022/02/06 04:40:05;;;;;;;;;31.00;30.50;;;;;7.72;65.02;101724.31;146604;595;46016;-78
2022/02/06 05:11:44;;;;;;;;;29.00;24.25;;;;;7.26;67.13;101741.31;146603;692;46016;-71
2022/02/06 05:24:47;;;;;;;;;30.75;25.25;;;;;7.00;67.41;101752.09;146609;569;46010;-72
2022/02/06 05:27:59;;;;;;;;;33.75;25.00;;;;;6.91;68.22;101759.97;146604;574;46008;-75
2022/02/06 05:30:59;;;;;;;;;34.25;29.25;;;;;6.82;68.89;101763.47;146604;563;46016;-75
2022/02/06 05:33:51;;;;;;;;;31.25;26.75;;;;;6.73;68.60;101763.62;146605;574;47008;-75
2022/02/06 05:36:43;;;;;;;;;27.50;23.75;;;;;6.65;68.33;101773.28;146606;664;46030;-74
2022/02/06 05:39:36;;;;;;;;;21.50;20.25;;;;;6.63;69.01;101784.22;146609;692;46008;-75
2022/02/06 05:42:28;;;;;;;;;23.25;21.75;;;;;6.63;67.84;101789.37;146605;585;46016;-74
2022/02/06 05:45:21;;;;;;;;;38.50;30.75;;;;;6.71;67.36;101801.25;146605;804;46021;-75
2022/02/06 05:48:13;;;;;;;;;43.00;35.75;;;;;6.77;67.04;101813.75;146602;570;46025;-75
2022/02/06 05:51:05;;;;;;;;;58.50;46.00;;;;;6.84;66.85;101816.06;146608;583;46008;-75
2022/02/06 05:53:57;;;;;;;;;50.75;41.00;;;;;6.87;67.69;101817.22;146604;584;46012;-75
2022/02/06 05:56:50;;;;;;;;;45.25;36.75;;;;;6.86;68.29;101830.88;146610;595;46008;-75
2022/02/06 05:59:42;;;;;;;;;44.75;35.75;;;;;6.85;69.12;101829.09;146607;572;46017;-75
2022/02/06 06:02:34;;;;;;;;;41.25;35.25;;;;;6.84;67.77;101832.41;146609;589;45024;-71
2022/02/06 06:05:27;;;;;;;;;55.00;42.75;;;;;6.89;67.28;101835.41;146604;590;47010;-75
2022/02/06 06:08:20;;;;;;;;;38.50;32.25;;;;;6.92;67.32;101831.41;146606;570;46021;-75
2022/02/06 06:11:13;;;;;;;;;38.75;34.25;;;;;6.96;68.17;101845.44;146599;673;46010;-74
2022/02/06 06:14:05;;;;;;;;;39.50;34.25;;;;;6.94;67.51;101852.12;146606;591;46020;-74
2022/02/06 06:16:57;;;;;;;;;34.75;31.25;;;;;6.97;67.48;101856.66;146605;593;46016;-75
2022/02/06 06:19:50;;;;;;;;;38.00;31.50;;;;;7.21;67.64;101856.13;146607;585;47008;-75
2022/02/06 06:22:42;;;;;;;;;40.25;31.25;;;;;7.87;66.24;101857.22;146603;654;46016;-76
2022/02/06 06:25:38;;;;;;;;;40.00;34.75;;;;;8.79;65.02;101866.12;146606;707;46020;-75
2022/02/06 06:28:30;;;;;;;;;34.00;31.00;;;;;9.68;62.60;101868.47;146604;624;46016;-77
2022/02/06 06:31:22;;;;;;;;;46.50;39.50;;;;;10.53;60.36;101872.84;146606;639;46020;-76
2022/02/06 06:34:15;;;;;;;;;40.00;35.25;;;;;11.38;58.53;101866.50;146602;619;46016;-76
2022/02/06 06:37:07;;;;;;;;;42.75;33.75;;;;;12.01;56.13;101870.59;146605;571;46021;-76
2022/02/06 06:40:00;;;;;;;;;41.25;34.75;;;;;12.60;54.77;101869.94;146605;627;46016;-77
2022/02/06 06:42:52;;;;;;;;;56.00;44.25;;;;;13.14;53.16;101866.22;146606;708;47008;-81
2022/02/06 06:45:44;;;;;;;;;54.75;45.00;;;;;13.48;52.42;101860.41;146605;607;46016;-79
2022/02/06 06:48:36;;;;;;;;;57.25;45.00;;;;;13.86;51.41;101860.91;146607;628;47008;-80
2022/02/06 06:51:28;;;;;;;;;51.25;40.50;;;;;13.94;50.75;101868.25;146605;595;46012;-85
2022/02/06 06:54:22;;;;;;;;;53.75;42.50;;;;;13.77;50.39;101860.37;146608;569;46020;-79
2022/02/06 06:57:26;;;;;;;;;55.75;44.50;;;;;13.93;50.51;101869.06;146606;598;46010;-81
2022/02/06 07:03:23;;;;;;;;;56.00;45.25;;;;;14.78;49.11;101863.28;146606;569;46016;-81
2022/02/06 07:06:15;;;;;;;;;62.25;46.00;;;;;15.07;48.36;101873.44;146605;586;46021;-76
2022/02/06 07:09:07;;;;;;;;;58.75;46.75;;;;;15.11;47.90;101872.78;146603;585;47012;-79
2022/02/06 07:12:00;;;;;;;;;69.00;53.75;;;;;15.01;47.29;101867.09;146604;614;47008;-75
2022/02/06 07:14:55;;;;;;;;;72.50;59.75;;;;;14.90;47.57;101872.59;146601;591;46016;-82
2022/02/06 07:17:47;;;;;;;;;77.33;66.33;;;;;14.78;48.24;101870.22;146606;593;47008;-79
2022/02/06 07:20:40;;;;;;;;;75.33;65.00;;;;;14.62;47.80;101876.34;146608;576;45914;-82
2022/02/06 07:23:32;;;;;;;;;72.67;61.67;;;;;14.47;48.19;101872.88;146611;607;45020;-80
2022/02/06 07:26:25;;;;;;;;;80.00;64.33;;;;;14.41;48.97;101875.16;146607;570;46017;-81
2022/02/06 07:29:18;;;;;;;;;73.00;56.75;;;;;14.39;49.00;101882.00;146613;617;46021;-81
2022/02/06 07:32:11;;;;;;;;;71.25;60.25;;;;;14.39;49.70;101867.28;146607;592;45914;-82
2022/02/06 07:35:03;;;;;;;;;67.00;52.00;;;;;14.43;49.03;101874.44;146612;570;45020;-83
2022/02/06 07:37:56;;;;;;;;;69.25;58.50;;;;;13.86;48.84;101785.31;146606;658;46016;-82
2022/02/06 07:40:48;;;;;;;;;63.75;51.00;;;;;14.27;49.03;101875.34;146605;623;46020;-81
2022/02/06 07:43:41;;;;;;;;;68.25;54.25;;;;;14.24;48.65;101883.00;146607;603;46010;-81
2022/02/06 07:46:48;;;;;;;;;65.75;51.50;;;;;14.14;49.75;101885.88;146609;579;47008;-82
2022/02/06 07:49:40;;;;;;;;;62.00;48.25;;;;;14.05;49.92;101885.41;146607;607;45914;-81
2022/02/06 07:52:32;;;;;;;;;64.75;51.00;;;;;14.05;50.93;101881.06;146608;564;46026;-81
2022/02/06 07:55:24;;;;;;;;;66.00;51.75;;;;;14.20;50.76;101875.78;146605;610;46016;-82
2022/02/06 07:58:16;;;;;;;;;70.75;58.75;;;;;14.41;49.48;101877.78;146605;599;46021;-82
2022/02/06 08:01:09;;;;;;;;;73.00;62.50;;;;;14.58;50.19;101873.47;146606;598;46010;-83
2022/02/06 08:04:02;;;;;;;;;75.00;66.67;;;;;14.73;48.20;101880.41;146612;604;45020;-82
2022/02/06 08:06:55;;;;;;;;;72.00;62.00;;;;;14.82;48.53;101881.72;146606;633;46010;-82
2022/02/06 08:09:56;;;;;;;;;72.75;59.00;;;;;14.94;48.30;101882.38;146599;575;46020;-82
2022/02/06 08:12:56;;;;;;;;;70.00;55.00;;;;;15.12;47.99;101883.31;146601;580;46017;-83
2022/02/06 08:15:48;;;;;;;;;70.50;59.75;;;;;15.31;47.15;101886.88;146609;589;46008;-83
2022/02/06 08:18:41;;;;;;;;;69.75;59.00;;;;;15.48;47.60;101883.38;146605;569;46016;-84
2022/02/06 08:21:34;;;;;;;;;58.75;47.50;;;;;15.64;45.41;101880.72;146607;563;46008;-83
2022/02/06 08:24:26;;;;;;;;;66.25;50.75;;;;;15.67;46.63;101886.12;146604;615;46914;-79
2022/02/06 08:27:19;;;;;;;;;66.75;54.00;;;;;15.79;46.09;101890.13;146605;610;46021;-81
2022/02/06 08:30:12;;;;;;;;;61.50;49.25;;;;;15.91;46.34;101893.34;146603;699;46016;-83
2022/02/06 08:33:07;;;;;;;;;63.25;47.75;;;;;16.05;45.80;101892.31;146607;638;46010;-80
2022/02/06 08:36:01;;;;;;;;;61.25;48.00;;;;;16.17;46.09;101892.00;146604;680;46914;-80
2022/02/06 08:38:54;;;;;;;;;56.75;45.75;;;;;16.34;46.49;101888.41;146605;596;46008;-80
2022/02/06 08:41:46;;;;;;;;;61.25;48.25;;;;;16.50;45.38;101892.62;146604;610;46914;-81
2022/02/06 08:44:38;;;;;;;;;69.50;54.75;;;;;16.62;45.08;101892.31;146602;612;46020;-80
2022/02/06 08:47:31;;;;;;;;;63.75;50.50;;;;;16.72;44.37;101896.22;146604;626;47010;-79
2022/02/06 08:50:23;;;;;;;;;60.25;46.50;;;;;16.74;44.94;101900.72;146608;584;47008;-81
2022/02/06 08:53:16;;;;;;;;;55.50;44.25;;;;;16.83;43.08;101895.03;146604;622;46010;-80
2022/02/06 08:56:08;;;;;;;;;59.75;44.75;;;;;16.86;43.34;101895.16;146605;618;46022;-81
2022/02/06 08:59:01;;;;;;;;;54.00;42.00;;;;;16.89;43.79;101908.41;146603;765;46016;-86
2022/02/06 09:01:53;;;;;;;;;51.00;41.50;;;;;16.98;43.56;101905.31;146606;649;46020;-80
2022/02/06 09:04:47;;;;;;;;;51.50;42.00;;;;;17.05;41.50;101903.00;146605;576;46017;-81
2022/02/06 09:07:40;;;;;;;;;59.00;47.25;;;;;17.02;40.49;101908.09;146609;600;46008;-79
2022/02/06 09:10:32;;;;;;;;;56.00;45.25;;;;;16.96;43.00;101899.09;146604;595;46010;-83
2022/02/06 09:13:24;;;;;;;;;45.50;38.00;;;;;16.99;42.49;101902.72;146606;615;46021;-77
2022/02/06 09:16:16;;;;;;;;;23.50;21.50;;;;;17.04;40.55;101902.91;146604;610;46016;-76
2022/02/06 09:19:10;;;;;;;;;36.50;30.50;;;;;17.09;41.29;101899.66;146609;569;46008;-78
2022/02/06 09:22:01;;;;;;;;;30.75;29.00;;;;;17.16;42.08;101900.81;146604;620;46016;-83
2022/02/06 09:24:54;;;;;;;;;39.75;34.75;;;;;17.29;42.93;101905.78;146608;583;46008;-78
2022/02/06 09:27:48;;;;;;;;;42.00;34.25;;;;;17.36;41.62;101906.06;146606;620;46913;-87
2022/02/06 09:30:40;;;;;;;;;42.25;33.75;;;;;17.29;43.23;101907.53;146607;595;46008;-80
2022/02/06 09:36:24;;;;;;;;;34.50;31.00;;;;;17.27;44.96;101901.31;146604;569;46022;-77
2022/02/06 09:39:18;;;;;;;;;28.00;25.00;;;;;17.29;45.00;101902.28;146603;596;46016;-78
2022/02/06 09:42:12;;;;;;;;;23.50;23.50;;;;;17.29;45.74;101897.03;146606;586;46021;-73
2022/02/06 09:45:06;;;;;;;;;29.00;26.25;;;;;16.33;43.12;101739.19;146604;669;46010;-74
2022/02/06 09:47:58;;;;;;;;;25.25;22.50;;;;;17.20;44.82;101894.03;146604;582;46021;-75
2022/02/06 09:50:50;;;;;;;;;27.50;22.50;;;;;17.15;44.12;101893.81;146598;567;49913;-75
2022/02/06 09:53:43;;;;;;;;;25.75;22.25;;;;;17.10;45.77;101895.31;146604;574;47008;-75
2022/02/06 09:56:42;;;;;;;;;21.50;18.50;;;;;17.08;45.44;101895.28;146602;574;46017;-75
2022/02/06 09:59:38;;;;;;;;;25.75;24.25;;;;;17.14;45.96;101888.50;146608;581;46020;-76
2022/02/06 10:02:35;;;;;;;;;26.00;23.00;;;;;17.23;45.99;101881.94;146603;573;46016;-76
2022/02/06 10:05:33;;;;;;;;;27.50;24.75;;;;;17.32;46.37;101881.44;146603;651;46020;-75
2022/02/06 10:08:38;;;;;;;;;34.00;30.50;;;;;17.49;46.80;101880.41;146601;597;47010;-74
2022/02/06 10:11:35;;;;;;;;;36.00;30.50;;;;;17.65;46.50;101881.91;146608;579;46021;-74
2022/02/06 10:14:29;;;;;;;;;28.75;27.00;;;;;17.70;44.26;101890.00;146605;622;46010;-75
2022/02/06 10:17:23;;;;;;;;;45.50;37.75;;;;;17.70;45.98;101869.00;146606;557;46020;-74
2022/02/06 10:20:30;;;;;;;;;41.25;33.00;;;;;17.68;47.37;101875.91;146604;579;46017;-74
2022/02/06 10:27:12;;;;;;;;;38.25;31.50;;;;;17.52;47.35;101862.16;146604;581;46017;-74
2022/02/06 10:30:19;;;;;;;;;37.50;33.00;;;;;17.49;46.91;101858.53;146608;586;47008;-73
2022/02/06 10:33:19;;;;;;;;;40.25;33.25;;;;;17.43;47.26;101859.16;146601;646;47021;-72
2022/02/06 10:36:11;;;;;;;;;211.50;192.00;;;;;17.42;47.17;101848.62;146608;630;46020;-73
2022/02/06 10:39:05;;;;;;;;;40.50;32.25;;;;;17.42;47.40;101844.28;146609;721;46010;-72
2022/02/06 10:41:58;;;;;;;;;42.50;35.50;;;;;17.47;48.01;101841.81;146608;570;46020;-73
2022/02/06 10:44:50;;;;;;;;;43.50;33.00;;;;;17.41;48.35;101838.94;146603;583;47010;-73
2022/02/06 10:47:43;;;;;;;;;169.00;148.50;;;;;17.45;47.93;101838.28;146604;565;46924;-73
2022/02/06 10:50:38;;;;;;;;;57.00;45.25;;;;;17.54;46.37;101836.91;146604;565;46914;-73
2022/02/06 10:53:31;;;;;;;;;74.50;62.25;;;;;17.55;46.16;101832.56;146602;564;46008;-72
2022/02/06 10:56:23;;;;;;;;;37.25;32.75;;;;;17.54;43.91;101841.25;146599;607;46914;-72
2022/02/06 10:59:15;;;;;;;;;35.75;30.50;;;;;17.41;45.05;101831.97;146601;606;46020;-72
2022/02/06 11:02:31;;;;;;;;;25.00;23.00;;;;;16.25;46.10;101639.38;146600;581;46016;-72
2022/02/06 11:05:33;;;;;;;;;27.00;23.25;;;;;17.35;43.67;101822.97;146600;611;46008;-73
2022/02/06 11:08:34;;;;;;;;;29.75;26.75;;;;;17.39;44.62;101820.56;146599;659;46017;-72
2022/02/06 11:11:36;;;;;;;;;33.00;30.00;;;;;17.38;43.17;101821.38;146602;610;47008;-72
2022/02/06 11:14:32;;;;;;;;;31.50;28.50;;;;;17.36;41.75;101809.94;146598;569;46016;-73
2022/02/06 11:17:29;;;;;;;;;22.75;20.75;;;;;17.26;42.80;101799.91;146600;606;46021;-72
2022/02/06 11:20:22;;;;;;;;;27.00;24.75;;;;;17.24;43.14;101801.56;146600;570;46016;-73
2022/02/06 11:23:14;;;;;;;;;37.00;31.50;;;;;17.24;42.00;101799.84;146601;600;47008;-73
2022/02/06 11:26:10;;;;;;;;;25.00;22.75;;;;;17.28;43.06;101791.25;146599;579;46016;-73
2022/02/06 11:29:02;;;;;;;;;42.00;34.25;;;;;17.31;42.49;101788.75;146602;588;46008;-73
2022/02/06 11:31:55;;;;;;;;;48.25;41.25;;;;;17.21;42.32;101788.34;146599;579;46011;-73
2022/02/06 11:34:48;;;;;;;;;25.50;22.00;;;;;17.11;43.22;101789.69;146600;649;46008;-73
2022/02/06 11:45:32;;;;;;;;;35.50;30.00;;;;;16.03;44.37;101551.22;146594;619;48912;-74
2022/02/06 11:48:28;;;;;;;;;19.75;18.25;;;;;17.49;41.27;101785.09;146602;564;46021;-71
2022/02/06 11:51:21;;;;;;;;;30.25;26.75;;;;;17.61;40.05;101776.84;146602;607;47010;-73
2022/02/06 11:54:49;;;;;;;;;19.00;16.00;;;;;16.75;43.34;101593.47;146609;582;46008;-73
2022/02/06 11:57:41;;;;;;;;;30.00;29.25;;;;;17.79;40.42;101774.97;146605;569;46026;-71
2022/02/06 12:00:34;;;;;;;;;24.75;23.25;;;;;17.83;42.01;101775.97;146605;596;47009;-72
2022/02/06 12:03:26;;;;;;;;;19.75;17.75;;;;;17.83;42.30;101765.47;146602;609;46016;-73
2022/02/06 12:06:19;;;;;;;;;21.25;20.25;;;;;17.80;41.63;101768.87;146606;571;46008;-72
2022/02/06 12:09:23;;;;;;;;;29.25;23.00;;;;;17.70;42.15;101767.59;146605;574;46011;-74
2022/02/06 12:12:17;;;;;;;;;17.75;16.00;;;;;17.62;42.49;101760.25;146605;611;46020;-73
2022/02/06 12:15:33;;;;;;;;;19.00;17.75;;;;;17.65;43.25;101752.50;146606;584;46010;-72
2022/02/06 12:18:45;;;;;;;;;20.75;18.25;;;;;16.61;42.86;101577.19;146608;620;46020;-71
2022/02/06 12:21:38;;;;;;;;;20.50;18.50;;;;;17.62;42.45;101748.03;146605;595;46010;-72
2022/02/06 12:24:43;;;;;;;;;20.00;18.50;;;;;17.53;41.27;101745.94;146607;583;46021;-72
2022/02/06 12:27:35;;;;;;;;;20.25;19.50;;;;;17.47;42.71;101742.19;146604;597;46010;-73
2022/02/06 12:30:36;;;;;;;;;17.75;14.50;;;;;17.50;43.25;101748.44;146607;620;46008;-72
2022/02/06 12:33:36;;;;;;;;;16.25;15.25;;;;;17.54;43.45;101737.25;146604;580;46913;-74
2022/02/06 12:37:08;;;;;;;;;21.50;21.25;;;;;17.59;44.25;101733.91;146606;589;47008;-73
2022/02/06 12:40:23;;;;;;;;;21.00;19.75;;;;;17.67;42.81;101733.38;146603;564;46016;-72
2022/02/06 12:43:15;;;;;;;;;29.50;25.75;;;;;17.67;42.59;101735.13;146606;578;46020;-74
2022/02/06 12:46:08;;;;;;;;;21.25;20.25;;;;;17.72;43.90;101731.81;146604;614;46023;-71
2022/02/06 12:49:05;;;;;;;;;22.50;19.50;;;;;17.71;41.88;101735.28;146609;609;46008;-73
2022/02/06 12:52:02;;;;;;;;;18.75;17.75;;;;;17.66;42.92;101725.44;146605;628;46012;-73
2022/02/06 12:54:55;;;;;;;;;21.75;20.75;;;;;17.60;43.14;101719.94;146606;577;46021;-74
2022/02/06 12:57:55;;;;;;;;;21.00;20.75;;;;;17.58;42.99;101721.63;146604;571;46016;-71
2022/02/06 13:00:51;;;;;;;;;22.75;19.50;;;;;17.47;41.48;101711.59;146608;590;46008;-74
2022/02/06 13:03:44;;;;;;;;;25.25;22.00;;;;;17.50;42.97;101709.09;146603;618;46016;-74
2022/02/06 13:06:44;;;;;;;;;20.50;18.75;;;;;17.58;42.33;101703.28;146603;609;46008;-74
2022/02/06 13:09:42;;;;;;;;;21.75;20.50;;;;;17.62;42.08;101702.56;146604;581;46016;-75
2022/02/06 13:12:47;;;;;;;;;21.25;17.50;;;;;17.59;41.36;101713.81;146608;614;46008;-75
2022/02/06 13:15:55;;;;;;;;;25.25;21.00;;;;;17.30;42.22;101713.59;146604;612;47010;-73
2022/02/06 13:19:14;;;;;;;;;21.75;20.75;;;;;17.14;42.54;101700.72;146606;580;46020;-74
2022/02/06 13:22:35;;;;;;;;;27.50;26.25;;;;;17.16;44.00;101703.38;146603;589;47010;-75
2022/02/06 13:25:48;;;;;;;;;24.00;22.50;;;;;17.26;41.66;101698.56;146608;658;46008;-74
2022/02/06 13:32:19;;;;;;;;;27.50;24.00;;;;;17.43;43.25;101700.97;146603;653;46021;-74
2022/02/06 13:35:28;;;;;;;;;26.25;23.00;;;;;17.53;42.43;101700.47;146603;577;47012;-74
2022/02/06 13:38:21;;;;;;;;;18.00;16.50;;;;;17.64;42.31;101698.28;146605;609;46008;-74
2022/02/06 13:41:20;;;;;;;;;18.75;18.00;;;;;16.91;42.72;101550.44;146596;564;47012;-73
2022/02/06 13:44:25;;;;;;;;;23.50;20.25;;;;;17.94;43.07;101690.66;146608;582;46008;-76
2022/02/06 13:47:17;;;;;;;;;23.25;21.75;;;;;18.12;42.58;101693.97;146605;581;46016;-75
2022/02/06 13:50:13;;;;;;;;;22.00;20.50;;;;;18.27;41.66;101692.72;146607;629;47008;-73
2022/02/06 13:53:21;;;;;;;;;25.00;18.25;;;;;18.38;41.63;101692.28;146603;566;46016;-74
2022/02/06 13:56:18;;;;;;;;;21.25;19.75;;;;;18.57;42.53;101701.69;146606;611;47008;-72
2022/02/06 13:59:18;;;;;;;;;21.50;21.50;;;;;18.76;40.44;101697.97;146604;590;46016;-72
2022/02/06 14:02:15;;;;;;;;;18.00;17.25;;;;;18.91;41.65;101692.34;146606;625;46008;-76
2022/02/06 14:05:11;;;;;;;;;25.75;24.00;;;;;19.04;39.61;101689.25;146602;591;46016;-74
2022/02/06 14:08:13;;;;;;;;;22.25;18.75;;;;;19.01;40.26;101690.87;146605;594;47008;-72
2022/02/06 14:11:15;;;;;;;;;19.00;19.00;;;;;18.87;40.81;101685.16;146602;598;46016;-72
2022/02/06 14:14:27;;;;;;;;;22.25;19.75;;;;;18.78;41.67;101676.97;146607;606;46020;-72
2022/02/06 14:17:46;;;;;;;;;17.00;15.25;;;;;18.63;41.07;101687.87;146606;599;46913;-72
2022/02/06 14:20:38;;;;;;;;;21.75;21.25;;;;;18.21;40.82;101680.28;146605;576;47008;-72
2022/02/06 14:23:31;;;;;;;;;20.75;17.00;;;;;17.69;39.37;101676.59;146604;564;46017;-71
2022/02/06 14:26:23;;;;;;;;;17.25;16.75;;;;;17.19;41.73;101669.44;146607;639;46020;-72
2022/02/06 14:29:21;;;;;;;;;24.75;24.25;;;;;16.85;43.93;101671.63;146606;637;46017;-73
2022/02/06 14:32:22;;;;;;;;;24.00;21.50;;;;;16.50;44.45;101669.22;146607;581;46020;-72
2022/02/06 14:35:16;;;;;;;;;31.25;26.75;;;;;16.26;44.17;101674.28;146601;608;46016;-73
2022/02/06 14:38:12;;;;;;;;;25.00;21.75;;;;;16.12;45.85;101669.34;146604;566;47008;-73
2022/02/06 14:41:25;;;;;;;;;19.50;16.50;;;;;16.02;46.41;101664.56;146605;595;46010;-73
2022/02/06 14:44:17;;;;;;;;;26.75;23.00;;;;;15.79;46.61;101657.37;146609;564;46008;-74
2022/02/06 14:47:10;;;;;;;;;21.50;21.25;;;;;15.62;47.19;101667.97;146603;566;46024;-72
2022/02/06 14:50:02;;;;;;;;;25.00;24.00;;;;;15.45;46.62;101653.19;146607;578;46020;-72
2022/02/06 14:52:54;;;;;;;;;23.25;22.25;;;;;15.41;46.97;101665.25;146599;610;47012;-74
2022/02/06 14:55:47;;;;;;;;;27.50;23.75;;;;;15.30;46.44;101666.47;146606;573;46020;-72
2022/02/06 14:58:40;;;;;;;;;23.50;20.00;;;;;15.33;47.79;101658.78;146606;730;46017;-74
2022/02/06 15:01:33;;;;;;;;;19.25;19.25;;;;;15.36;47.51;101664.16;146605;601;46021;-73
2022/02/06 15:04:26;;;;;;;;;21.25;21.25;;;;;15.43;48.38;101660.09;146606;577;47010;-73
2022/02/06 15:07:18;;;;;;;;;31.00;28.00;;;;;15.46;48.74;101655.03;146605;670;46008;-74
2022/02/06 15:10:11;;;;;;;;;27.25;24.00;;;;;15.48;48.62;101664.72;146602;569;46016;-74
2022/02/06 15:13:04;;;;;;;;;38.75;32.00;;;;;15.46;48.82;101660.25;146606;616;46021;-73
2022/02/06 15:16:01;;;;;;;;;27.50;24.00;;;;;15.38;48.32;101665.09;146604;593;46016;-73
2022/02/06 15:19:13;;;;;;;;;20.25;19.50;;;;;15.18;48.62;101658.06;146608;612;46020;-72
2022/02/06 15:22:06;;;;;;;;;21.00;19.25;;;;;14.94;49.57;101661.28;146605;596;46017;-73
2022/02/06 15:24:58;;;;;;;;;20.50;16.50;;;;;14.84;50.36;101653.81;146604;705;46020;-73
2022/02/06 15:27:50;;;;;;;;;20.50;20.25;;;;;14.70;52.25;101658.38;146602;590;46017;-73
2022/02/06 15:30:43;;;;;;;;;23.75;22.50;;;;;14.48;52.96;101655.47;146606;587;46021;-73